Time;durP1;ratioP1;P1;durP2;ratioP2;P2;SDS_P1;SDS_P2;PMS_P1;PMS_P2;Temp;Humidity;BMP_temperature;BMP_pressure;BME280_temperature;BME280_humidity;BME280_pressure;Samples;Min_cycle;Max_cycle;Signal;HPM_P1;HPM_P2
2023/01/31 06:24:33;;;;;;;28.23;12.32;;;;;;;;;;5168658;23;20064;-69
2023/01/31 06:26:59;;;;;;;25.85;13.13;;;;;;;;;;5011160;28;20493;-65
2023/01/31 06:29:25;;;;;;;26.30;12.43;;;;;;;;;;5011300;28;20377;-64
2023/01/31 06:31:52;;;;;;;24.98;12.43;;;;;;;;;;5010715;28;20060;-67
2023/01/31 06:34:19;;;;;;;23.95;11.75;;;;;;;;;;5010813;28;20038;-71
2023/01/31 06:36:45;;;;;;;21.50;10.38;;;;;;;;;;5011243;28;20026;-62
2023/01/31 06:39:12;;;;;;;21.77;10.85;;;;;;;;;;5007062;28;20493;-62
2023/01/31 06:41:38;;;;;;;19.90;10.15;;;;;;;;;;5000050;28;20469;-63
2023/01/31 06:44:04;;;;;;;20.88;10.27;;;;;;;;;;5003362;28;20018;-65
2023/01/31 06:46:31;;;;;;;21.98;10.40;;;;;;;;;;5001192;28;20124;-62
2023/01/31 06:48:57;;;;;;;23.88;10.52;;;;;;;;;;4999532;28;20049;-62
2023/01/31 06:51:23;;;;;;;24.95;10.60;;;;;;;;;;4981431;28;20381;-61
2023/01/31 06:53:50;;;;;;;23.27;11.30;;;;;;;;;;5000535;28;20026;-65
2023/01/31 06:56:17;;;;;;;18.95;9.95;;;;;;;;;;4999659;28;20022;-61
2023/01/31 06:58:43;;;;;;;20.60;10.60;;;;;;;;;;4999272;28;20373;-64
2023/01/31 07:01:10;;;;;;;20.08;10.80;;;;;;;;;;5001302;28;20031;-61
2023/01/31 07:03:36;;;;;;;22.83;10.95;;;;;;;;;;4997812;28;20022;-62
2023/01/31 07:06:03;;;;;;;24.15;11.23;;;;;;;;;;4999873;28;20048;-60
2023/01/31 07:08:29;;;;;;;23.88;11.45;;;;;;;;;;4998548;28;20018;-66
2023/01/31 07:10:56;;;;;;;23.88;11.40;;;;;;;;;;5001591;28;20032;-64
2023/01/31 07:13:22;;;;;;;21.23;10.32;;;;;;;;;;5010391;28;20039;-62
2023/01/31 07:15:48;;;;;;;20.80;9.93;;;;;;;;;;5010731;28;20057;-63
2023/01/31 07:18:14;;;;;;;19.27;9.65;;;;;;;;;;5004753;28;20022;-63
2023/01/31 07:20:40;;;;;;;20.65;9.75;;;;;;;;;;5000818;28;20032;-63
2023/01/31 07:23:07;;;;;;;21.65;10.30;;;;;;;;;;4992162;28;20041;-63
2023/01/31 07:25:33;;;;;;;20.83;10.27;;;;;;;;;;4982368;28;20026;-63
2023/01/31 07:28:00;;;;;;;25.17;11.18;;;;;;;;;;4984547;28;20113;-74
2023/01/31 07:30:26;;;;;;;19.38;9.80;;;;;;;;;;4978731;28;20033;-63
2023/01/31 07:32:52;;;;;;;19.50;9.18;;;;;;;;;;4978506;28;20023;-70
2023/01/31 07:35:18;;;;;;;20.48;9.70;;;;;;;;;;4971680;28;20126;-62
2023/01/31 07:37:44;;;;;;;19.50;8.95;;;;;;;;;;4978402;28;20050;-64
2023/01/31 07:40:12;;;;;;;18.85;10.13;;;;;;;;;;4979721;28;20076;-63
2023/01/31 07:42:38;;;;;;;17.80;8.98;;;;;;;;;;4981111;28;20031;-69
2023/01/31 07:45:04;;;;;;;17.83;8.45;;;;;;;;;;4981458;28;20026;-68
2023/01/31 07:47:30;;;;;;;17.63;8.45;;;;;;;;;;4982035;28;20498;-70
2023/01/31 07:49:57;;;;;;;15.30;7.35;;;;;;;;;;4994208;28;20027;-63
2023/01/31 07:52:23;;;;;;;15.43;8.10;;;;;;;;;;4993781;28;20022;-61
2023/01/31 07:54:49;;;;;;;13.43;7.40;;;;;;;;;;4994076;28;20034;-63
2023/01/31 07:57:17;;;;;;;18.77;8.73;;;;;;;;;;4976699;28;20093;-70
2023/01/31 07:59:44;;;;;;;19.55;8.40;;;;;;;;;;4993982;28;20489;-62
2023/01/31 08:04:58;;;;;;;15.90;7.80;;;;;;;;;;4993769;28;20061;-65
2023/01/31 08:07:25;;;;;;;17.50;8.13;;;;;;;;;;4993393;28;20028;-63
2023/01/31 08:09:51;;;;;;;18.10;7.05;;;;;;;;;;4993370;28;20467;-62
2023/01/31 08:12:18;;;;;;;19.25;8.18;;;;;;;;;;4993849;28;20102;-62
2023/01/31 08:14:44;;;;;;;15.25;7.05;;;;;;;;;;4993765;28;20030;-62
2023/01/31 08:17:10;;;;;;;10.93;5.53;;;;;;;;;;4993454;28;20027;-63
2023/01/31 08:19:37;;;;;;;13.57;6.95;;;;;;;;;;4983918;28;20027;-62
2023/01/31 08:22:04;;;;;;;12.40;6.15;;;;;;;;;;4981620;28;20045;-62
2023/01/31 08:24:30;;;;;;;12.60;6.13;;;;;;;;;;4975264;28;20578;-62
2023/01/31 08:26:57;;;;;;;16.77;7.38;;;;;;;;;;4974106;28;20134;-68
2023/01/31 08:29:23;;;;;;;12.60;5.68;;;;;;;;;;4973118;28;20154;-63
2023/01/31 08:31:50;;;;;;;14.20;6.03;;;;;;;;;;4973433;28;20046;-62
2023/01/31 08:34:16;;;;;;;11.82;5.10;;;;;;;;;;4981863;28;20026;-71
2023/01/31 08:36:42;;;;;;;12.93;5.75;;;;;;;;;;4989094;28;20089;-63
2023/01/31 08:39:08;;;;;;;14.15;6.75;;;;;;;;;;4982895;28;20498;-67
2023/01/31 08:41:35;;;;;;;12.00;5.78;;;;;;;;;;4977957;28;20043;-60
2023/01/31 08:44:02;;;;;;;16.85;7.68;;;;;;;;;;4973071;28;20023;-63
2023/01/31 08:46:30;;;;;;;14.57;5.65;;;;;;;;;;4973908;28;20033;-66
2023/01/31 08:48:57;;;;;;;10.07;3.55;;;;;;;;;;4973858;28;20035;-62
2023/01/31 08:51:23;;;;;;;7.57;3.42;;;;;;;;;;4973846;28;20035;-62
2023/01/31 08:53:49;;;;;;;12.68;5.25;;;;;;;;;;4973681;28;20062;-61
2023/01/31 08:56:16;;;;;;;18.13;7.25;;;;;;;;;;4973233;28;20035;-61
2023/01/31 08:58:43;;;;;;;7.72;3.20;;;;;;;;;;4973636;28;20107;-62
2023/01/31 09:01:11;;;;;;;13.80;5.45;;;;;;;;;;4973277;28;20038;-62
2023/01/31 09:03:37;;;;;;;8.10;2.97;;;;;;;;;;4973508;28;20031;-62
2023/01/31 09:06:05;;;;;;;7.93;2.88;;;;;;;;;;4973202;28;20030;-61
2023/01/31 09:08:31;;;;;;;10.85;3.60;;;;;;;;;;4972901;28;20026;-62
2023/01/31 09:11:01;;;;;;;9.10;2.95;;;;;;;;;;4973166;28;20027;-70
2023/01/31 09:13:27;;;;;;;9.60;4.07;;;;;;;;;;4973449;28;20033;-61
2023/01/31 09:15:58;;;;;;;8.60;3.28;;;;;;;;;;4973075;28;20042;-62
2023/01/31 09:18:24;;;;;;;9.73;3.25;;;;;;;;;;4973241;28;20035;-70
2023/01/31 09:20:50;;;;;;;12.35;3.60;;;;;;;;;;4972211;28;20033;-61
2023/01/31 09:23:18;;;;;;;7.75;3.50;;;;;;;;;;4972530;28;20043;-62
2023/01/31 09:25:44;;;;;;;6.80;3.00;;;;;;;;;;4973046;28;20023;-62
2023/01/31 09:28:10;;;;;;;12.52;4.80;;;;;;;;;;4983513;28;20037;-70
2023/01/31 09:30:36;;;;;;;10.80;3.85;;;;;;;;;;4988056;28;20062;-60
2023/01/31 09:33:03;;;;;;;10.82;4.78;;;;;;;;;;4985458;28;20105;-62
2023/01/31 09:35:30;;;;;;;10.13;4.18;;;;;;;;;;4992207;28;20031;-61
2023/01/31 09:37:57;;;;;;;6.45;2.90;;;;;;;;;;4974489;28;20026;-68
2023/01/31 09:40:25;;;;;;;9.02;3.45;;;;;;;;;;4982940;28;20046;-61
2023/01/31 09:42:52;;;;;;;11.52;4.80;;;;;;;;;;4972521;28;20072;-73
2023/01/31 09:45:28;;;;;;;9.23;4.07;;;;;;;;;;4972776;28;20039;-61
2023/01/31 09:47:56;;;;;;;9.93;3.40;;;;;;;;;;4972685;28;20031;-61
2023/01/31 09:50:31;;;;;;;11.45;3.83;;;;;;;;;;4972292;28;20065;-67
2023/01/31 09:52:58;;;;;;;10.98;4.22;;;;;;;;;;4972178;28;20431;-63
2023/01/31 09:55:32;;;;;;;9.38;3.38;;;;;;;;;;4974173;28;20427;-69
2023/01/31 09:58:07;;;;;;;11.57;3.55;;;;;;;;;;4990396;28;20069;-64
2023/01/31 10:00:36;;;;;;;6.05;1.90;;;;;;;;;;4991744;28;20398;-63
2023/01/31 10:03:10;;;;;;;6.35;2.50;;;;;;;;;;4992076;28;20026;-64
2023/01/31 10:05:39;;;;;;;8.55;3.42;;;;;;;;;;4990942;28;20097;-71
2023/01/31 10:08:05;;;;;;;11.82;7.18;;;;;;;;;;4991189;28;20030;-63
2023/01/31 10:10:37;;;;;;;25.77;13.95;;;;;;;;;;4974046;28;20049;-74
2023/01/31 10:13:06;;;;;;;10.23;5.13;;;;;;;;;;4991509;28;20022;-62
2023/01/31 10:15:36;;;;;;;11.10;4.82;;;;;;;;;;4991706;28;20239;-62
2023/01/31 10:18:06;;;;;;;11.05;4.40;;;;;;;;;;4991666;28;20109;-62
2023/01/31 10:20:38;;;;;;;14.63;5.93;;;;;;;;;;4988450;28;20055;-63
2023/01/31 10:23:04;;;;;;;;;;;;;;;;;;4991578;28;20038;-62
2023/01/31 10:25:36;;;;;;;6.85;3.17;;;;;;;;;;4974704;28;19972;-62
2023/01/31 10:28:08;;;;;;;8.18;3.65;;;;;;;;;;4991380;28;20498;-73
2023/01/31 10:30:41;;;;;;;7.43;2.85;;;;;;;;;;4991497;28;20022;-62
2023/01/31 10:33:06;;;;;;;;;;;;;;;;;;4991913;28;20027;-70
2023/01/31 10:35:35;;;;;;;7.93;3.20;;;;;;;;;;4991581;28;20273;-70
2023/01/31 10:40:22;;;;;;;9.82;3.85;;;;;;;;;;5128241;27;20119;-73
2023/01/31 10:42:59;;;;;;;11.77;2.95;;;;;;;;;;5087369;28;20035;-71
2023/01/31 10:45:29;;;;;;;10.48;3.33;;;;;;;;;;5087830;28;20056;-75
2023/01/31 10:48:11;;;;;;;6.95;3.03;;;;;;;;;;5086678;28;20020;-74
2023/01/31 10:50:47;;;;;;;10.83;4.13;;;;;;;;;;5069885;28;20055;-63
2023/01/31 10:53:17;;;;;;;11.75;3.30;;;;;;;;;;5087645;28;20257;-65
2023/01/31 10:55:51;;;;;;;10.60;3.08;;;;;;;;;;5088450;28;20031;-68
2023/01/31 10:58:19;;;;;;;10.73;3.50;;;;;;;;;;5092755;28;20129;-63
2023/01/31 11:00:48;;;;;;;10.13;3.97;;;;;;;;;;5090775;28;20025;-62
2023/01/31 11:03:15;;;;;;;7.40;2.80;;;;;;;;;;5090747;28;20019;-63
2023/01/31 11:05:47;;;;;;;7.15;2.53;;;;;;;;;;5089081;28;20396;-63
2023/01/31 11:08:13;;;;;;;;;;;;;;;;;;5090754;28;20027;-73
2023/01/31 11:10:49;;;;;;;8.85;2.78;;;;;;;;;;5095802;28;19965;-69
2023/01/31 11:13:17;;;;;;;9.10;3.47;;;;;;;;;;5095875;28;20551;-73
2023/01/31 11:15:44;;;;;;;10.68;2.38;;;;;;;;;;5099176;28;20090;-62
2023/01/31 11:18:28;;;;;;;6.55;2.92;;;;;;;;;;5107536;28;20035;-69
2023/01/31 11:20:55;;;;;;;5.75;2.70;;;;;;;;;;5107932;28;20031;-62
2023/01/31 11:23:23;;;;;;;8.40;3.92;;;;;;;;;;5097767;28;20086;-62
2023/01/31 11:25:50;;;;;;;13.13;5.45;;;;;;;;;;5067667;28;20525;-62
2023/01/31 11:28:34;;;;;;;6.03;2.92;;;;;;;;;;5067228;28;20083;-63
2023/01/31 11:31:01;;;;;;;9.90;3.17;;;;;;;;;;5067221;28;20064;-61
2023/01/31 11:33:44;;;;;;;9.68;2.47;;;;;;;;;;5067101;28;20028;-62
2023/01/31 11:36:12;;;;;;;12.02;5.05;;;;;;;;;;5067079;28;20033;-61
2023/01/31 11:38:39;;;;;;;9.60;3.10;;;;;;;;;;5066560;28;20535;-61
2023/01/31 11:41:23;;;;;;;7.82;3.03;;;;;;;;;;5067019;28;20031;-62
2023/01/31 11:43:49;;;;;;;9.82;3.13;;;;;;;;;;5066617;28;20043;-61
2023/01/31 11:46:16;;;;;;;9.50;3.65;;;;;;;;;;5066876;28;20421;-61
2023/01/31 11:48:43;;;;;;;8.05;3.33;;;;;;;;;;5067116;28;20036;-62
2023/01/31 11:51:11;;;;;;;7.60;3.20;;;;;;;;;;5054820;28;20083;-62
2023/01/31 11:53:43;;;;;;;11.50;3.67;;;;;;;;;;5053443;28;20053;-62
2023/01/31 11:56:17;;;;;;;8.15;3.25;;;;;;;;;;5053795;28;20163;-62
2023/01/31 11:58:44;;;;;;;6.55;2.83;;;;;;;;;;5053450;28;20044;-61
2023/01/31 12:01:19;;;;;;;6.15;3.10;;;;;;;;;;5053663;28;20029;-62
2023/01/31 12:03:57;;;;;;;10.43;2.95;;;;;;;;;;5053585;28;20017;-61
2023/01/31 12:06:31;;;;;;;10.35;3.75;;;;;;;;;;5053352;28;20025;-61
2023/01/31 12:08:59;;;;;;;8.60;3.67;;;;;;;;;;5053293;28;20378;-61
2023/01/31 12:11:32;;;;;;;7.95;3.05;;;;;;;;;;5053369;28;20118;-66
2023/01/31 12:14:18;;;;;;;6.03;2.80;;;;;;;;;;5053453;28;20057;-61
2023/01/31 12:16:45;;;;;;;8.65;3.65;;;;;;;;;;5053071;28;20091;-61
2023/01/31 12:19:11;;;;;;;9.43;3.97;;;;;;;;;;5052878;28;20072;-61
2023/01/31 12:21:40;;;;;;;8.93;3.20;;;;;;;;;;5053102;28;20424;-61
2023/01/31 12:24:16;;;;;;;6.82;3.17;;;;;;;;;;5052745;28;20507;-65
2023/01/31 12:26:48;;;;;;;9.15;3.20;;;;;;;;;;5053216;28;20037;-67
2023/01/31 12:29:33;;;;;;;6.88;3.65;;;;;;;;;;5052733;28;20412;-64
2023/01/31 12:32:02;;;;;;;8.30;3.10;;;;;;;;;;5053158;28;20037;-62
2023/01/31 12:34:28;;;;;;;14.15;5.10;;;;;;;;;;5053140;28;20031;-62
2023/01/31 12:37:33;;;;;;;12.55;4.88;;;;;;;;;;5052851;28;20035;-62
2023/01/31 12:39:59;;;;;;;17.45;6.60;;;;;;;;;;4991065;28;20046;-63
2023/01/31 12:42:37;;;;;;;18.73;7.40;;;;;;;;;;4991490;28;20034;-61
2023/01/31 12:45:22;;;;;;;12.77;5.07;;;;;;;;;;4990659;28;20482;-61
2023/01/31 12:48:11;;;;;;;27.73;9.15;;;;;;;;;;4990931;28;20037;-62
2023/01/31 12:50:37;;;;;;;9.07;3.50;;;;;;;;;;5006803;28;20030;-64
2023/01/31 12:53:22;;;;;;;9.35;3.00;;;;;;;;;;5005226;28;20109;-65
2023/01/31 12:55:51;;;;;;;12.65;2.70;;;;;;;;;;5003065;28;20041;-65
2023/01/31 12:58:32;;;;;;;8.73;3.40;;;;;;;;;;4997301;28;20148;-66
2023/01/31 13:01:04;;;;;;;9.98;2.33;;;;;;;;;;5008130;28;20022;-65
2023/01/31 13:03:38;;;;;;;7.25;2.60;;;;;;;;;;4997064;28;20117;-65
2023/01/31 13:06:17;;;;;;;5.75;2.03;;;;;;;;;;5000160;28;20524;-66
2023/01/31 13:08:47;;;;;;;8.27;2.60;;;;;;;;;;5000549;28;20117;-65
2023/01/31 13:11:15;;;;;;;7.30;2.58;;;;;;;;;;5026122;28;20037;-65
2023/01/31 13:13:45;;;;;;;8.70;3.00;;;;;;;;;;5038230;28;20029;-64
2023/01/31 13:16:14;;;;;;;18.50;9.65;;;;;;;;;;5040509;28;20052;-75
2023/01/31 13:18:41;;;;;;;15.13;4.65;;;;;;;;;;5041826;28;20033;-69
2023/01/31 13:21:09;;;;;;;8.07;3.22;;;;;;;;;;5043630;28;20048;-73
2023/01/31 13:23:49;;;;;;;8.10;2.65;;;;;;;;;;5041382;28;20031;-69
2023/01/31 13:26:25;;;;;;;9.15;2.83;;;;;;;;;;5041844;28;20076;-65
2023/01/31 13:29:13;;;;;;;6.90;2.55;;;;;;;;;;5040541;28;20017;-86
2023/01/31 13:31:43;;;;;;;10.75;3.47;;;;;;;;;;5042395;28;20040;-67
2023/01/31 13:34:15;;;;;;;9.90;3.72;;;;;;;;;;5040496;28;20023;-79
2023/01/31 13:36:46;;;;;;;9.55;3.42;;;;;;;;;;5042096;28;20025;-65
2023/01/31 13:39:16;;;;;;;11.57;3.88;;;;;;;;;;5043283;28;20136;-65
2023/01/31 13:41:42;;;;;;;7.22;2.95;;;;;;;;;;5036008;28;20052;-65
2023/01/31 13:44:11;;;;;;;9.15;3.35;;;;;;;;;;5031081;28;20032;-73
2023/01/31 13:46:42;;;;;;;8.98;3.20;;;;;;;;;;5031708;28;20021;-66
2023/01/31 13:49:15;;;;;;;8.48;2.55;;;;;;;;;;5049307;28;20032;-68
2023/01/31 13:51:46;;;;;;;5.97;2.05;;;;;;;;;;5039915;28;20029;-71
2023/01/31 13:54:16;;;;;;;7.60;2.10;;;;;;;;;;5031363;28;20064;-65
2023/01/31 13:56:45;;;;;;;5.38;1.77;;;;;;;;;;5031422;28;20048;-68
2023/01/31 13:59:17;;;;;;;7.20;2.05;;;;;;;;;;5030885;28;20037;-65
2023/01/31 14:01:43;;;;;;;;;;;;;;;;;;5031982;28;20022;-66
2023/01/31 14:04:16;;;;;;;11.25;2.67;;;;;;;;;;5031178;28;19920;-64
2023/01/31 14:06:57;;;;;;;9.65;3.55;;;;;;;;;;5043265;28;20014;-65
2023/01/31 14:09:25;;;;;;;10.85;4.18;;;;;;;;;;5029008;28;20041;-70
2023/01/31 14:11:52;;;;;;;8.02;2.40;;;;;;;;;;5035255;28;20032;-71
2023/01/31 14:14:21;;;;;;;5.72;2.03;;;;;;;;;;5039864;28;20025;-64
2023/01/31 14:16:48;;;;;;;10.13;3.28;;;;;;;;;;5040992;28;20056;-64
2023/01/31 14:19:23;;;;;;;8.00;3.58;;;;;;;;;;5038825;28;20025;-64
2023/01/31 14:21:52;;;;;;;7.72;2.45;;;;;;;;;;5038658;28;20091;-66
2023/01/31 14:24:38;;;;;;;5.18;2.10;;;;;;;;;;5021618;28;20092;-66
2023/01/31 14:27:11;;;;;;;8.77;2.63;;;;;;;;;;5039947;28;20033;-76
2023/01/31 14:29:41;;;;;;;9.13;2.55;;;;;;;;;;5038364;28;20109;-64
2023/01/31 14:32:13;;;;;;;7.85;2.72;;;;;;;;;;5038677;28;20020;-64
2023/01/31 14:34:39;;;;;;;8.52;3.30;;;;;;;;;;5039126;28;20034;-66
2023/01/31 14:37:15;;;;;;;7.53;2.53;;;;;;;;;;5039291;28;20055;-65
2023/01/31 14:39:45;;;;;;;8.15;3.40;;;;;;;;;;5052267;28;20534;-65
2023/01/31 14:42:17;;;;;;;8.40;3.30;;;;;;;;;;5058696;28;20025;-72
2023/01/31 14:45:02;;;;;;;9.25;3.63;;;;;;;;;;5059195;28;20033;-65
2023/01/31 14:47:31;;;;;;;11.27;3.70;;;;;;;;;;5060533;28;20108;-72
2023/01/31 14:50:06;;;;;;;9.95;3.50;;;;;;;;;;5058743;28;20021;-65
2023/01/31 14:52:41;;;;;;;8.32;3.58;;;;;;;;;;5058503;28;20025;-65
2023/01/31 14:55:24;;;;;;;11.13;3.58;;;;;;;;;;5058679;28;20024;-65
2023/01/31 14:57:52;;;;;;;8.77;3.17;;;;;;;;;;5060444;28;20016;-65
2023/01/31 15:00:21;;;;;;;9.10;4.20;;;;;;;;;;5058031;28;20035;-65
2023/01/31 15:03:06;;;;;;;12.63;4.25;;;;;;;;;;5070326;28;20020;-65
2023/01/31 15:05:32;;;;;;;10.88;4.15;;;;;;;;;;5065486;28;20780;-68
2023/01/31 15:08:01;;;;;;;11.00;4.40;;;;;;;;;;5059541;28;20041;-65
2023/01/31 15:10:46;;;;;;;8.70;3.60;;;;;;;;;;5067109;28;20071;-65
2023/01/31 15:13:31;;;;;;;10.43;4.63;;;;;;;;;;5069035;28;20089;-65
2023/01/31 15:15:57;;;;;;;10.85;4.22;;;;;;;;;;5050331;28;20074;-67
2023/01/31 15:18:25;;;;;;;9.52;4.30;;;;;;;;;;5049983;28;20580;-66
2023/01/31 15:20:59;;;;;;;9.45;4.20;;;;;;;;;;5049840;28;20032;-65
2023/01/31 15:23:27;;;;;;;14.40;4.80;;;;;;;;;;5050101;28;20468;-65
2023/01/31 15:25:54;;;;;;;14.27;5.95;;;;;;;;;;5052539;28;20025;-66
2023/01/31 15:28:22;;;;;;;12.82;5.55;;;;;;;;;;5053951;28;20025;-64
2023/01/31 15:30:48;;;;;;;17.73;6.60;;;;;;;;;;5054097;28;20025;-65
2023/01/31 15:33:22;;;;;;;14.25;6.47;;;;;;;;;;5054176;28;20029;-65
2023/01/31 15:35:54;;;;;;;14.85;7.30;;;;;;;;;;5053995;28;20084;-65
2023/01/31 15:38:23;;;;;;;9.88;4.88;;;;;;;;;;5047273;28;20486;-65
2023/01/31 15:41:08;;;;;;;9.48;3.75;;;;;;;;;;5041059;28;20072;-65
2023/01/31 15:43:37;;;;;;;12.57;4.10;;;;;;;;;;5042127;28;20036;-66
2023/01/31 15:46:12;;;;;;;10.30;4.63;;;;;;;;;;5041553;28;20025;-65
2023/01/31 15:48:40;;;;;;;10.13;4.32;;;;;;;;;;5024807;28;20028;-66
2023/01/31 15:51:12;;;;;;;8.38;3.67;;;;;;;;;;5041414;28;20047;-65
2023/01/31 15:53:38;;;;;;;8.07;3.10;;;;;;;;;;5053802;28;20017;-67
2023/01/31 15:56:06;;;;;;;20.45;7.45;;;;;;;;;;5053745;28;20028;-72
2023/01/31 15:58:34;;;;;;;9.73;3.60;;;;;;;;;;5053310;28;20029;-65
2023/01/31 16:01:02;;;;;;;8.52;3.70;;;;;;;;;;5053344;28;20037;-77
2023/01/31 16:03:30;;;;;;;10.00;4.40;;;;;;;;;;5053278;28;20029;-65
2023/01/31 16:05:57;;;;;;;9.57;3.78;;;;;;;;;;5053385;28;20087;-65
2023/01/31 16:08:34;;;;;;;11.05;4.53;;;;;;;;;;5053398;28;20103;-65
2023/01/31 16:11:08;;;;;;;7.75;3.63;;;;;;;;;;5053165;28;20024;-64
2023/01/31 16:13:36;;;;;;;10.27;4.07;;;;;;;;;;5053577;28;20029;-65
2023/01/31 16:16:03;;;;;;;8.98;3.80;;;;;;;;;;5053284;28;20434;-65
2023/01/31 16:18:29;;;;;;;9.00;3.20;;;;;;;;;;5053132;28;20036;-66
2023/01/31 16:20:56;;;;;;;9.27;3.95;;;;;;;;;;5053177;28;20029;-66
2023/01/31 16:23:22;;;;;;;13.40;3.67;;;;;;;;;;5053000;28;20025;-65
2023/01/31 16:25:54;;;;;;;7.18;3.22;;;;;;;;;;5052719;28;20075;-65
2023/01/31 16:28:21;;;;;;;7.25;3.35;;;;;;;;;;5053048;28;20029;-65
2023/01/31 16:30:48;;;;;;;10.02;4.50;;;;;;;;;;5052765;28;20761;-69
2023/01/31 16:33:17;;;;;;;11.40;4.05;;;;;;;;;;5052931;28;20036;-65
2023/01/31 16:35:44;;;;;;;14.35;5.65;;;;;;;;;;5052776;28;20071;-66
2023/01/31 16:38:18;;;;;;;16.80;6.70;;;;;;;;;;5040050;28;20574;-65
2023/01/31 16:40:46;;;;;;;16.02;6.28;;;;;;;;;;5072226;28;20465;-65
2023/01/31 16:43:38;;;;;;;16.38;7.28;;;;;;;;;;5072305;28;20067;-66
2023/01/31 16:46:07;;;;;;;15.93;7.25;;;;;;;;;;5069446;28;20047;-67
2023/01/31 16:48:35;;;;;;;15.00;6.63;;;;;;;;;;5072817;28;20024;-66
2023/01/31 16:51:20;;;;;;;15.95;7.82;;;;;;;;;;5072272;28;20479;-68
2023/01/31 16:54:06;;;;;;;15.93;7.13;;;;;;;;;;5072571;28;20032;-67
2023/01/31 16:56:32;;;;;;;17.15;6.97;;;;;;;;;;5072198;28;20494;-66
2023/01/31 16:58:58;;;;;;;17.23;7.72;;;;;;;;;;5071952;28;20032;-69
2023/01/31 17:01:24;;;;;;;14.38;6.38;;;;;;;;;;5072452;28;20017;-67
2023/01/31 17:04:06;;;;;;;15.07;6.38;;;;;;;;;;5072089;28;20472;-65
2023/01/31 17:06:32;;;;;;;12.70;6.13;;;;;;;;;;5071974;28;20036;-69
2023/01/31 17:08:59;;;;;;;16.30;6.32;;;;;;;;;;5072176;28;20036;-76
2023/01/31 17:11:25;;;;;;;14.15;6.43;;;;;;;;;;5071764;28;20028;-76
2023/01/31 17:13:51;;;;;;;16.33;6.50;;;;;;;;;;5072003;28;20025;-65
2023/01/31 17:16:24;;;;;;;15.07;6.80;;;;;;;;;;5071956;28;20021;-73
2023/01/31 17:18:54;;;;;;;15.10;6.20;;;;;;;;;;5071958;28;20033;-74
2023/01/31 17:21:23;;;;;;;12.88;6.95;;;;;;;;;;5071655;28;20025;-74
2023/01/31 17:23:50;;;;;;;15.43;6.93;;;;;;;;;;5060591;28;20036;-65
2023/01/31 17:26:17;;;;;;;17.20;6.75;;;;;;;;;;5061362;28;20012;-65
2023/01/31 17:28:44;;;;;;;13.43;6.07;;;;;;;;;;5061852;28;20074;-67
2023/01/31 17:31:14;;;;;;;13.13;6.03;;;;;;;;;;5071536;28;20028;-66
2023/01/31 17:33:40;;;;;;;15.23;5.90;;;;;;;;;;5070193;28;20031;-65
2023/01/31 17:36:08;;;;;;;15.32;5.97;;;;;;;;;;5061834;28;20028;-66
2023/01/31 17:38:35;;;;;;;12.60;5.75;;;;;;;;;;5057624;28;20526;-70
2023/01/31 17:41:01;;;;;;;12.23;5.07;;;;;;;;;;5068068;28;20029;-73
2023/01/31 17:43:27;;;;;;;15.25;5.80;;;;;;;;;;5051647;28;20025;-66
2023/01/31 17:45:53;;;;;;;10.82;5.47;;;;;;;;;;5051636;28;20150;-65
2023/01/31 17:48:20;;;;;;;13.93;5.55;;;;;;;;;;5050794;28;20447;-66
2023/01/31 17:50:46;;;;;;;11.52;5.60;;;;;;;;;;5051665;28;20031;-66
2023/01/31 17:53:13;;;;;;;12.15;5.38;;;;;;;;;;5051435;28;20021;-68
2023/01/31 17:55:39;;;;;;;9.93;5.07;;;;;;;;;;5051346;28;20029;-71
2023/01/31 17:58:05;;;;;;;14.32;5.88;;;;;;;;;;5051101;28;20202;-73
2023/01/31 18:00:31;;;;;;;15.32;6.40;;;;;;;;;;5050929;28;20036;-65
2023/01/31 18:02:57;;;;;;;12.65;5.13;;;;;;;;;;5051171;28;20024;-67
2023/01/31 18:05:23;;;;;;;14.02;5.40;;;;;;;;;;5051240;28;20040;-66
2023/01/31 18:07:50;;;;;;;13.77;5.32;;;;;;;;;;5051368;28;20079;-66
2023/01/31 18:10:16;;;;;;;12.57;5.97;;;;;;;;;;5050443;28;20025;-69
2023/01/31 18:12:43;;;;;;;13.65;5.70;;;;;;;;;;5049855;28;20055;-67
2023/01/31 18:15:09;;;;;;;15.65;5.53;;;;;;;;;;5050941;28;20106;-66
2023/01/31 18:17:35;;;;;;;16.73;6.78;;;;;;;;;;5050966;28;20025;-66
2023/01/31 18:20:01;;;;;;;13.55;6.15;;;;;;;;;;5050830;28;20144;-70
2023/01/31 18:22:27;;;;;;;15.98;5.95;;;;;;;;;;5051824;28;20025;-67
2023/01/31 18:24:53;;;;;;;13.45;5.68;;;;;;;;;;5050861;28;20456;-70
2023/01/31 18:27:19;;;;;;;11.27;5.40;;;;;;;;;;5050291;28;20041;-66
2023/01/31 18:29:45;;;;;;;11.02;5.35;;;;;;;;;;5062605;28;20020;-77
2023/01/31 18:32:11;;;;;;;16.10;6.68;;;;;;;;;;5057885;28;20017;-68
2023/01/31 18:34:37;;;;;;;13.20;5.72;;;;;;;;;;5057925;28;20039;-74
2023/01/31 18:37:09;;;;;;;13.93;6.85;;;;;;;;;;5058139;28;20017;-66
2023/01/31 18:39:35;;;;;;;17.25;6.82;;;;;;;;;;5044399;28;20049;-70
2023/01/31 18:42:04;;;;;;;15.45;6.57;;;;;;;;;;5038333;28;20017;-71
2023/01/31 18:44:30;;;;;;;15.10;6.20;;;;;;;;;;5039819;28;20068;-68
2023/01/31 18:46:56;;;;;;;12.38;5.90;;;;;;;;;;5039472;28;20387;-67
2023/01/31 18:49:22;;;;;;;16.30;6.80;;;;;;;;;;5038768;28;20033;-67
2023/01/31 18:51:48;;;;;;;18.13;7.53;;;;;;;;;;5047514;28;20100;-68
2023/01/31 18:54:14;;;;;;;22.30;9.93;;;;;;;;;;5050402;28;20029;-68
2023/01/31 18:56:40;;;;;;;24.00;11.25;;;;;;;;;;5050633;28;20127;-67
2023/01/31 18:59:06;;;;;;;26.75;12.20;;;;;;;;;;5050577;28;20045;-67
2023/01/31 19:01:32;;;;;;;24.83;11.43;;;;;;;;;;5035689;28;20377;-68
2023/01/31 19:03:58;;;;;;;22.08;11.18;;;;;;;;;;5054340;28;20447;-68
2023/01/31 19:06:26;;;;;;;22.83;10.15;;;;;;;;;;5054681;28;20535;-71
2023/01/31 19:08:53;;;;;;;19.10;9.27;;;;;;;;;;5053543;28;20043;-70
2023/01/31 19:11:20;;;;;;;22.08;12.05;;;;;;;;;;5048309;28;20034;-68
2023/01/31 19:13:47;;;;;;;18.27;9.23;;;;;;;;;;5034302;28;20030;-80
2023/01/31 19:16:16;;;;;;;17.33;8.90;;;;;;;;;;5034303;28;20079;-67
2023/01/31 19:18:42;;;;;;;18.02;8.80;;;;;;;;;;5033773;28;20047;-71
2023/01/31 19:21:17;;;;;;;18.20;9.02;;;;;;;;;;5050570;28;20074;-65
2023/01/31 19:23:44;;;;;;;18.63;8.60;;;;;;;;;;5054365;28;20491;-74
2023/01/31 19:26:10;;;;;;;21.10;8.95;;;;;;;;;;5054301;28;20100;-74
2023/01/31 19:28:38;;;;;;;16.98;8.57;;;;;;;;;;5054509;28;20098;-71
2023/01/31 19:31:05;;;;;;;16.15;8.50;;;;;;;;;;5054008;28;20035;-66
2023/01/31 19:33:31;;;;;;;18.10;8.73;;;;;;;;;;5048975;28;20083;-74
2023/01/31 19:35:57;;;;;;;16.52;8.40;;;;;;;;;;5043618;28;20037;-70
2023/01/31 19:38:23;;;;;;;16.92;8.48;;;;;;;;;;5041100;28;20445;-64
2023/01/31 19:40:50;;;;;;;17.92;9.20;;;;;;;;;;5042601;28;20087;-65
2023/01/31 19:43:17;;;;;;;16.80;8.57;;;;;;;;;;5036370;28;20032;-72
2023/01/31 19:45:46;;;;;;;17.42;8.27;;;;;;;;;;5044014;28;20086;-74
2023/01/31 19:48:15;;;;;;;17.70;7.55;;;;;;;;;;5053631;28;20025;-71
2023/01/31 19:50:41;;;;;;;18.55;7.80;;;;;;;;;;5054074;28;20437;-69
2023/01/31 19:53:07;;;;;;;14.77;7.82;;;;;;;;;;5053894;28;20029;-66
2023/01/31 19:55:33;;;;;;;15.07;7.38;;;;;;;;;;5046934;28;20116;-73
2023/01/31 19:57:59;;;;;;;16.48;7.32;;;;;;;;;;5033138;28;20076;-66
2023/01/31 20:00:25;;;;;;;16.67;7.90;;;;;;;;;;5033555;28;20040;-71
2023/01/31 20:02:51;;;;;;;18.67;8.13;;;;;;;;;;5033231;28;20034;-66
2023/01/31 20:05:17;;;;;;;18.60;8.00;;;;;;;;;;5033642;28;20108;-66
2023/01/31 20:07:44;;;;;;;16.35;7.68;;;;;;;;;;5028416;28;20029;-69
2023/01/31 20:10:11;;;;;;;18.83;8.00;;;;;;;;;;5022311;28;20384;-72
2023/01/31 20:12:37;;;;;;;18.85;9.70;;;;;;;;;;5032389;28;20496;-66
2023/01/31 20:15:04;;;;;;;25.73;13.30;;;;;;;;;;5032912;28;20071;-67
2023/01/31 20:17:30;;;;;;;17.85;8.75;;;;;;;;;;5034764;28;20040;-70
2023/01/31 20:19:57;;;;;;;20.02;8.65;;;;;;;;;;5043240;28;20484;-72
2023/01/31 20:22:23;;;;;;;17.17;7.85;;;;;;;;;;5040865;28;20014;-64
2023/01/31 20:24:49;;;;;;;15.05;7.13;;;;;;;;;;5049658;28;20324;-64
2023/01/31 20:27:15;;;;;;;15.98;6.88;;;;;;;;;;5052777;28;20750;-65
2023/01/31 20:29:41;;;;;;;12.55;6.20;;;;;;;;;;5052703;28;20083;-71
2023/01/31 20:32:10;;;;;;;12.82;6.05;;;;;;;;;;5052918;28;20035;-70
2023/01/31 20:34:36;;;;;;;14.52;6.03;;;;;;;;;;5053036;28;20028;-65
2023/01/31 20:37:02;;;;;;;13.98;6.20;;;;;;;;;;5046247;28;20033;-72
2023/01/31 20:39:28;;;;;;;12.80;5.88;;;;;;;;;;5035877;28;20107;-67
2023/01/31 20:41:55;;;;;;;15.35;5.97;;;;;;;;;;5032409;28;20409;-64
2023/01/31 20:44:21;;;;;;;11.82;6.15;;;;;;;;;;5032769;28;20036;-64
2023/01/31 20:46:47;;;;;;;11.57;5.88;;;;;;;;;;5032952;28;20427;-65
2023/01/31 20:49:13;;;;;;;13.10;6.10;;;;;;;;;;5034274;28;20523;-73
2023/01/31 20:51:39;;;;;;;13.68;6.93;;;;;;;;;;5052747;28;20029;-75
2023/01/31 20:54:06;;;;;;;15.20;6.60;;;;;;;;;;5052597;28;20067;-74
2023/01/31 20:56:32;;;;;;;17.42;6.65;;;;;;;;;;5052296;28;20033;-75
2023/01/31 20:58:58;;;;;;;15.55;6.95;;;;;;;;;;5051822;28;20654;-73
2023/01/31 21:01:24;;;;;;;16.70;6.85;;;;;;;;;;5052051;28;20079;-73
2023/01/31 21:03:50;;;;;;;14.35;7.22;;;;;;;;;;5051068;28;20400;-74
2023/01/31 21:06:16;;;;;;;12.43;6.82;;;;;;;;;;5051658;28;20496;-73
2023/01/31 21:08:43;;;;;;;16.25;6.65;;;;;;;;;;5051598;28;20041;-68
2023/01/31 21:11:10;;;;;;;16.58;7.72;;;;;;;;;;5032794;28;20029;-67
2023/01/31 21:13:37;;;;;;;18.17;7.95;;;;;;;;;;5031197;28;20599;-68